Time;durP1;ratioP1;P1;durP2;ratioP2;P2;SDS_P1;SDS_P2;PMS_P1;PMS_P2;Temp;Humidity;BMP_temperature;BMP_pressure;BME280_temperature;BME280_humidity;BME280_pressure;Samples;Min_cycle;Max_cycle;Signal;HPM_P1;HPM_P2
2024/01/09 00:01:16;;;;;;;12.43;10.80;;;;;;;;;;2065747;28;20372;-83
2024/01/09 00:02:37;;;;;;;16.80;12.77;;;;;;;;;;2066737;28;20195;-84
2024/01/09 00:03:58;;;;;;;13.18;10.80;;;;;;;;;;2062967;28;20673;-84
2024/01/09 00:05:19;;;;;;;12.90;11.57;;;;;;;;;;2060632;28;20038;-82
2024/01/09 00:06:40;;;;;;;16.45;11.88;;;;;;;;;;2060446;28;20031;-84
2024/01/09 00:08:01;;;;;;;17.98;13.15;;;;;;;;;;2067144;28;20030;-83
2024/01/09 00:09:22;;;;;;;13.38;12.07;;;;;;;;;;2065316;28;20026;-81
2024/01/09 00:10:43;;;;;;;17.33;11.85;;;;;;;;;;2068381;28;20110;-81
2024/01/09 00:12:04;;;;;;;13.35;11.95;;;;;;;;;;2067336;28;20026;-82
2024/01/09 00:13:24;;;;;;;14.40;12.25;;;;;;;;;;2067791;28;20491;-83
2024/01/09 00:14:45;;;;;;;14.73;11.90;;;;;;;;;;2065202;28;20038;-82
2024/01/09 00:16:07;;;;;;;14.38;12.05;;;;;;;;;;2059949;28;20034;-82
2024/01/09 00:17:28;;;;;;;14.65;12.07;;;;;;;;;;2062964;28;20023;-81
2024/01/09 00:18:54;;;;;;;13.88;12.18;;;;;;;;;;2065793;28;20034;-83
2024/01/09 00:20:16;;;;;;;17.52;12.52;;;;;;;;;;2073172;28;20056;-82
2024/01/09 00:21:38;;;;;;;14.07;11.65;;;;;;;;;;2064385;28;20034;-83
2024/01/09 00:22:59;;;;;;;16.60;12.27;;;;;;;;;;2071449;28;20375;-83
2024/01/09 00:24:19;;;;;;;17.23;12.55;;;;;;;;;;2056752;28;20035;-83
2024/01/09 00:25:40;;;;;;;15.23;12.05;;;;;;;;;;2066900;28;20034;-83
2024/01/09 00:27:01;;;;;;;15.90;12.95;;;;;;;;;;2066035;28;20398;-83
2024/01/09 00:28:22;;;;;;;13.40;12.18;;;;;;;;;;2062533;28;20034;-83
2024/01/09 00:29:43;;;;;;;17.27;12.85;;;;;;;;;;2062018;28;20034;-82
2024/01/09 00:31:04;;;;;;;13.80;11.07;;;;;;;;;;2065389;28;20042;-83
2024/01/09 00:32:26;;;;;;;14.27;11.93;;;;;;;;;;2062641;28;20089;-83
2024/01/09 00:33:46;;;;;;;16.52;12.05;;;;;;;;;;2072001;28;20017;-83
2024/01/09 00:35:07;;;;;;;13.50;11.60;;;;;;;;;;2074254;28;20510;-83
2024/01/09 00:36:28;;;;;;;16.27;12.35;;;;;;;;;;2074303;28;20041;-83
2024/01/09 00:37:49;;;;;;;17.23;12.00;;;;;;;;;;2071592;28;20456;-83
2024/01/09 00:39:11;;;;;;;13.85;12.35;;;;;;;;;;2070541;28;20037;-83
2024/01/09 00:40:32;;;;;;;19.05;13.48;;;;;;;;;;2070601;28;20441;-82
2024/01/09 00:41:52;;;;;;;13.65;10.55;;;;;;;;;;2072106;28;20030;-83
2024/01/09 00:43:13;;;;;;;15.52;12.73;;;;;;;;;;2064190;28;20047;-83
2024/01/09 00:44:34;;;;;;;12.60;11.27;;;;;;;;;;2064004;28;20557;-83
2024/01/09 00:45:55;;;;;;;14.77;12.30;;;;;;;;;;2069782;28;20056;-83
2024/01/09 00:47:16;;;;;;;14.02;11.10;;;;;;;;;;2063744;28;20038;-82
2024/01/09 00:48:37;;;;;;;13.45;11.65;;;;;;;;;;2061153;28;20030;-83
2024/01/09 00:49:58;;;;;;;15.40;12.43;;;;;;;;;;2062331;28;20043;-83
2024/01/09 00:51:19;;;;;;;18.20;12.30;;;;;;;;;;2062516;28;20022;-83
2024/01/09 00:52:40;;;;;;;14.65;12.55;;;;;;;;;;2060630;28;20027;-83
2024/01/09 00:54:01;;;;;;;14.38;11.85;;;;;;;;;;2062986;28;20034;-83
2024/01/09 00:55:22;;;;;;;13.77;11.85;;;;;;;;;;2063274;28;20038;-83
2024/01/09 00:56:43;;;;;;;16.35;12.35;;;;;;;;;;2059196;28;20090;-83
2024/01/09 00:58:04;;;;;;;13.38;11.48;;;;;;;;;;2061655;28;20023;-82
2024/01/09 00:59:24;;;;;;;15.13;12.05;;;;;;;;;;2063443;28;20034;-84
2024/01/09 01:00:46;;;;;;;14.07;10.95;;;;;;;;;;2061216;28;20035;-83
2024/01/09 01:02:07;;;;;;;14.73;11.18;;;;;;;;;;2064972;28;20037;-83
2024/01/09 01:03:28;;;;;;;16.60;12.00;;;;;;;;;;2062071;28;20046;-83
2024/01/09 01:04:49;;;;;;;14.20;12.20;;;;;;;;;;2060428;28;20038;-83
2024/01/09 01:06:10;;;;;;;18.73;12.80;;;;;;;;;;2063655;28;20026;-83
2024/01/09 01:07:31;;;;;;;15.25;12.23;;;;;;;;;;2060948;28;20030;-83
2024/01/09 01:08:52;;;;;;;13.07;11.35;;;;;;;;;;2065246;28;20041;-82
2024/01/09 01:10:13;;;;;;;17.42;12.18;;;;;;;;;;2069367;28;20075;-82
2024/01/09 01:11:34;;;;;;;13.68;12.05;;;;;;;;;;2062924;28;20030;-83
2024/01/09 01:12:55;;;;;;;14.90;12.55;;;;;;;;;;2068347;28;20034;-82
2024/01/09 01:14:16;;;;;;;14.02;12.25;;;;;;;;;;2070796;28;20033;-83
2024/01/09 01:15:37;;;;;;;13.73;11.95;;;;;;;;;;2068257;28;20026;-83
2024/01/09 01:16:58;;;;;;;12.75;11.18;;;;;;;;;;2062735;28;20552;-82
2024/01/09 01:18:19;;;;;;;12.65;11.20;;;;;;;;;;2059633;28;20061;-83
2024/01/09 01:19:40;;;;;;;14.82;13.27;;;;;;;;;;2066382;28;20030;-84
2024/01/09 01:21:01;;;;;;;15.57;11.93;;;;;;;;;;2061601;28;20030;-83
2024/01/09 01:22:22;;;;;;;13.18;11.73;;;;;;;;;;2061792;28;20115;-83
2024/01/09 01:23:43;;;;;;;14.35;11.13;;;;;;;;;;2065657;28;20034;-84
2024/01/09 01:25:04;;;;;;;18.45;11.88;;;;;;;;;;2073937;28;20030;-84
2024/01/09 01:26:25;;;;;;;13.20;11.50;;;;;;;;;;2063457;28;20034;-82
2024/01/09 01:27:45;;;;;;;17.02;12.05;;;;;;;;;;2071646;28;20026;-85
2024/01/09 01:29:06;;;;;;;17.98;12.82;;;;;;;;;;2062785;28;20039;-83
2024/01/09 01:30:27;;;;;;;12.95;11.20;;;;;;;;;;2060040;28;20176;-83
2024/01/09 01:31:48;;;;;;;15.13;11.43;;;;;;;;;;2060391;28;20097;-83
2024/01/09 01:33:09;;;;;;;13.30;10.57;;;;;;;;;;2057455;28;20046;-83
2024/01/09 01:34:30;;;;;;;13.18;11.88;;;;;;;;;;2066368;28;20037;-83
2024/01/09 01:35:51;;;;;;;14.70;12.18;;;;;;;;;;2062702;28;20041;-81
2024/01/09 01:37:12;;;;;;;13.55;12.20;;;;;;;;;;2059890;28;20030;-81
2024/01/09 01:38:33;;;;;;;14.85;11.40;;;;;;;;;;2069327;28;20037;-82
2024/01/09 01:39:53;;;;;;;15.85;11.40;;;;;;;;;;2061982;28;20408;-81
2024/01/09 01:41:16;;;;;;;13.57;12.17;;;;;;;;;;2065345;28;20033;-80
2024/01/09 01:42:37;;;;;;;13.45;12.10;;;;;;;;;;2060554;28;20031;-82
2024/01/09 01:43:57;;;;;;;14.60;11.75;;;;;;;;;;2063895;28;20413;-81
2024/01/09 01:45:21;;;;;;;13.95;11.70;;;;;;;;;;2064969;28;20041;-81
2024/01/09 01:46:43;;;;;;;14.73;12.48;;;;;;;;;;2060634;28;20085;-82
2024/01/09 01:48:04;;;;;;;15.25;11.90;;;;;;;;;;2061688;28;20038;-80
2024/01/09 01:49:26;;;;;;;13.02;11.65;;;;;;;;;;2059551;28;20634;-82
2024/01/09 01:50:47;;;;;;;13.97;11.57;;;;;;;;;;2059358;28;20066;-80
2024/01/09 01:52:09;;;;;;;13.18;11.88;;;;;;;;;;2063431;28;20536;-81
2024/01/09 01:53:31;;;;;;;12.25;10.90;;;;;;;;;;2059029;28;20038;-81
2024/01/09 01:54:52;;;;;;;;;;;;;;;;;;2069710;28;20033;-81
2024/01/09 01:56:12;;;;;;;12.80;11.00;;;;;;;;;;2064940;28;19909;-81
2024/01/09 01:57:33;;;;;;;13.60;10.85;;;;;;;;;;2070490;28;20046;-81
2024/01/09 01:58:54;;;;;;;15.77;12.07;;;;;;;;;;2064799;28;20046;-81
2024/01/09 02:00:16;;;;;;;11.80;10.68;;;;;;;;;;2062298;28;20034;-82
2024/01/09 02:01:38;;;;;;;12.95;11.60;;;;;;;;;;2058812;28;20042;-81
2024/01/09 02:02:59;;;;;;;23.20;13.55;;;;;;;;;;2057549;28;20494;-81
2024/01/09 02:04:20;;;;;;;14.50;12.07;;;;;;;;;;2052094;28;20166;-81
2024/01/09 02:05:41;;;;;;;14.20;12.55;;;;;;;;;;2059822;28;20038;-81
2024/01/09 02:07:02;;;;;;;12.48;11.05;;;;;;;;;;2067877;28;20069;-83
2024/01/09 02:08:24;;;;;;;13.57;11.52;;;;;;;;;;2071397;28;20050;-81
2024/01/09 02:09:45;;;;;;;12.55;11.32;;;;;;;;;;2064266;28;20039;-81
2024/01/09 02:11:06;;;;;;;13.73;11.32;;;;;;;;;;2068280;28;20029;-81
2024/01/09 02:12:27;;;;;;;13.13;11.35;;;;;;;;;;2063234;28;20034;-81
2024/01/09 02:13:48;;;;;;;14.82;12.40;;;;;;;;;;2050731;28;20042;-82
2024/01/09 02:15:09;;;;;;;15.40;11.85;;;;;;;;;;2055485;28;20034;-81
2024/01/09 02:16:30;;;;;;;13.88;12.15;;;;;;;;;;2057886;28;20031;-81
2024/01/09 02:17:51;;;;;;;13.38;11.98;;;;;;;;;;2068473;28;20054;-81
2024/01/09 02:19:12;;;;;;;14.23;11.73;;;;;;;;;;2063287;28;20034;-81
2024/01/09 02:20:33;;;;;;;15.35;11.50;;;;;;;;;;2059794;28;20034;-79
2024/01/09 02:21:54;;;;;;;13.55;11.02;;;;;;;;;;2061196;28;20031;-83
2024/01/09 02:23:15;;;;;;;15.23;12.10;;;;;;;;;;2068380;28;20075;-81
2024/01/09 02:24:36;;;;;;;14.02;10.90;;;;;;;;;;2062860;28;20030;-81
2024/01/09 02:25:57;;;;;;;14.45;11.43;;;;;;;;;;2063751;28;20509;-81
2024/01/09 02:27:18;;;;;;;13.02;11.23;;;;;;;;;;2066042;28;20026;-81
2024/01/09 02:29:01;;;;;;;12.60;11.25;;;;;;;;;;2069234;28;20026;-81
2024/01/09 02:30:22;;;;;;;12.15;10.82;;;;;;;;;;2060405;28;20031;-82
2024/01/09 02:31:43;;;;;;;14.65;11.95;;;;;;;;;;2069539;28;20026;-81
2024/01/09 02:33:06;;;;;;;23.95;13.35;;;;;;;;;;2066664;28;20082;-82
2024/01/09 02:34:28;;;;;;;16.77;11.73;;;;;;;;;;2065879;28;20486;-82
2024/01/09 02:35:48;;;;;;;13.55;11.32;;;;;;;;;;2062055;28;20529;-81
2024/01/09 02:37:10;;;;;;;15.52;11.27;;;;;;;;;;2068166;28;20042;-82
2024/01/09 02:38:31;;;;;;;15.48;12.15;;;;;;;;;;2067844;28;20026;-82
2024/01/09 02:39:52;;;;;;;15.32;11.80;;;;;;;;;;2061719;28;20034;-84
2024/01/09 02:41:13;;;;;;;19.45;12.93;;;;;;;;;;2066586;28;20094;-81
2024/01/09 02:42:34;;;;;;;18.80;13.02;;;;;;;;;;2062630;28;20026;-82
2024/01/09 02:43:55;;;;;;;21.73;12.88;;;;;;;;;;2065699;28;20425;-82
2024/01/09 02:45:16;;;;;;;17.83;11.52;;;;;;;;;;2071353;28;20092;-82
2024/01/09 02:46:36;;;;;;;16.20;12.65;;;;;;;;;;2072729;28;20026;-82
2024/01/09 02:47:57;;;;;;;16.58;11.35;;;;;;;;;;2061736;28;20073;-82
2024/01/09 02:49:18;;;;;;;26.77;14.60;;;;;;;;;;2065525;28;20033;-81
2024/01/09 02:50:39;;;;;;;16.38;12.43;;;;;;;;;;2059022;28;20043;-81
2024/01/09 02:52:00;;;;;;;15.57;11.95;;;;;;;;;;2058961;28;20030;-81
2024/01/09 02:53:21;;;;;;;18.83;14.05;;;;;;;;;;2054215;28;20073;-82
2024/01/09 02:54:42;;;;;;;13.93;11.45;;;;;;;;;;2057583;28;20039;-82
2024/01/09 02:56:03;;;;;;;15.23;11.50;;;;;;;;;;2062375;28;20031;-82
2024/01/09 02:57:25;;;;;;;12.88;11.38;;;;;;;;;;2063384;28;20039;-82
2024/01/09 02:58:46;;;;;;;15.63;11.80;;;;;;;;;;2058859;28;20035;-82
2024/01/09 03:00:08;;;;;;;13.85;11.90;;;;;;;;;;2062199;28;20402;-82
2024/01/09 03:01:29;;;;;;;14.02;12.23;;;;;;;;;;2061130;28;20026;-82
2024/01/09 03:02:50;;;;;;;14.85;11.18;;;;;;;;;;2063020;28;20035;-82
2024/01/09 03:04:11;;;;;;;15.88;12.98;;;;;;;;;;2061098;28;20309;-83
2024/01/09 03:05:31;;;;;;;14.45;12.80;;;;;;;;;;2058847;28;20142;-82
2024/01/09 03:06:52;;;;;;;16.48;13.13;;;;;;;;;;2066946;28;20418;-82
2024/01/09 03:08:13;;;;;;;13.85;11.25;;;;;;;;;;2059354;28;20046;-82
2024/01/09 03:09:35;;;;;;;13.00;11.30;;;;;;;;;;2059106;28;20398;-81
2024/01/09 03:10:56;;;;;;;16.50;12.75;;;;;;;;;;2060178;28;20035;-82
2024/01/09 03:12:17;;;;;;;13.73;11.48;;;;;;;;;;2061270;28;20041;-82
2024/01/09 03:13:38;;;;;;;16.20;11.45;;;;;;;;;;2067330;28;20046;-82
2024/01/09 03:14:59;;;;;;;15.63;12.88;;;;;;;;;;2064392;28;20068;-81
2024/01/09 03:16:20;;;;;;;14.15;11.93;;;;;;;;;;2054910;28;20165;-81
2024/01/09 03:17:41;;;;;;;18.70;13.10;;;;;;;;;;2064291;28;20022;-81
2024/01/09 03:19:02;;;;;;;15.25;12.23;;;;;;;;;;2068688;28;20454;-81
2024/01/09 03:20:24;;;;;;;15.82;11.57;;;;;;;;;;2063059;28;20085;-81
2024/01/09 03:21:45;;;;;;;16.13;12.30;;;;;;;;;;2060175;28;20026;-81
2024/01/09 03:23:06;;;;;;;13.15;11.38;;;;;;;;;;2054933;28;20062;-81
2024/01/09 03:24:28;;;;;;;12.05;10.18;;;;;;;;;;2065452;28;20034;-81
2024/01/09 03:25:49;;;;;;;18.50;11.90;;;;;;;;;;2063938;28;20069;-81
2024/01/09 03:27:10;;;;;;;13.70;12.23;;;;;;;;;;2071016;28;20037;-81
2024/01/09 03:28:31;;;;;;;17.23;12.05;;;;;;;;;;2064091;28;20023;-81
2024/01/09 03:29:52;;;;;;;16.15;12.85;;;;;;;;;;2059165;28;20069;-81
2024/01/09 03:31:19;;;;;;;16.85;12.25;;;;;;;;;;2067419;28;20054;-81
2024/01/09 03:32:40;;;;;;;16.80;11.85;;;;;;;;;;2063649;28;20030;-81
2024/01/09 03:34:01;;;;;;;17.20;11.80;;;;;;;;;;2067880;28;20108;-81
2024/01/09 03:35:23;;;;;;;15.60;11.85;;;;;;;;;;2063551;28;20030;-82
2024/01/09 03:36:44;;;;;;;15.77;12.13;;;;;;;;;;2066695;28;20380;-81
2024/01/09 03:38:05;;;;;;;14.60;11.27;;;;;;;;;;2065680;28;20030;-82
2024/01/09 03:39:26;;;;;;;14.10;11.32;;;;;;;;;;2058124;28;20448;-82
2024/01/09 03:40:47;;;;;;;17.05;12.50;;;;;;;;;;2062014;28;20053;-81
2024/01/09 03:42:08;;;;;;;19.35;12.02;;;;;;;;;;2070969;28;20026;-82
2024/01/09 03:43:29;;;;;;;15.30;11.93;;;;;;;;;;2071465;28;20042;-82
2024/01/09 03:44:50;;;;;;;14.13;11.73;;;;;;;;;;2073078;28;20056;-83
2024/01/09 03:46:10;;;;;;;14.13;11.48;;;;;;;;;;2072885;28;20034;-82
2024/01/09 03:47:31;;;;;;;14.30;12.20;;;;;;;;;;2070857;28;20026;-82
2024/01/09 03:48:52;;;;;;;17.90;11.80;;;;;;;;;;2067706;28;20030;-83
2024/01/09 03:50:13;;;;;;;15.63;11.57;;;;;;;;;;2074855;28;20424;-82
2024/01/09 03:51:34;;;;;;;12.50;11.10;;;;;;;;;;2067830;28;20379;-83
2024/01/09 03:52:55;;;;;;;15.98;13.18;;;;;;;;;;2073323;28;20074;-82
2024/01/09 03:54:16;;;;;;;17.17;12.60;;;;;;;;;;2067450;28;20081;-81
2024/01/09 03:55:37;;;;;;;14.82;11.32;;;;;;;;;;2066666;28;20038;-82
2024/01/09 03:56:58;;;;;;;18.88;13.00;;;;;;;;;;2075014;28;20030;-83
2024/01/09 03:58:19;;;;;;;17.27;11.43;;;;;;;;;;2069221;28;20101;-82
2024/01/09 03:59:41;;;;;;;15.05;11.52;;;;;;;;;;2074840;28;20029;-83
2024/01/09 04:01:02;;;;;;;19.70;13.13;;;;;;;;;;2065956;28;20042;-82
2024/01/09 04:02:23;;;;;;;16.08;11.88;;;;;;;;;;2062940;28;20105;-82
2024/01/09 04:03:45;;;;;;;17.67;12.55;;;;;;;;;;2059170;28;20050;-83
2024/01/09 04:05:06;;;;;;;14.35;11.30;;;;;;;;;;2059812;28;20501;-82
2024/01/09 04:06:29;;;;;;;31.02;28.25;;;;;;;;;;2063619;28;20077;-81
2024/01/09 04:07:49;;;;;;;;;;;;;;;;;;2071349;28;20038;-83
2024/01/09 04:09:11;;;;;;;16.83;12.50;;;;;;;;;;2059058;28;19918;-84
2024/01/09 04:10:32;;;;;;;14.20;11.43;;;;;;;;;;2051485;28;20041;-84
2024/01/09 04:11:53;;;;;;;13.82;11.88;;;;;;;;;;2054565;28;20123;-83
2024/01/09 04:13:14;;;;;;;15.90;11.95;;;;;;;;;;2061108;28;20026;-80
2024/01/09 04:14:35;;;;;;;14.98;13.13;;;;;;;;;;2054243;28;20426;-84
2024/01/09 04:15:56;;;;;;;24.10;14.23;;;;;;;;;;2062249;28;20042;-83
2024/01/09 04:17:17;;;;;;;14.50;11.93;;;;;;;;;;2056593;28;20106;-82
2024/01/09 04:18:38;;;;;;;16.75;11.77;;;;;;;;;;2062928;28;20104;-83
2024/01/09 04:20:01;;;;;;;19.02;12.98;;;;;;;;;;2056484;28;20023;-83
2024/01/09 04:21:22;;;;;;;17.40;12.60;;;;;;;;;;2063193;28;20034;-82
2024/01/09 04:22:42;;;;;;;14.38;11.93;;;;;;;;;;2053011;28;20038;-83
2024/01/09 04:24:03;;;;;;;19.58;13.13;;;;;;;;;;2055375;28;20046;-83
2024/01/09 04:25:24;;;;;;;15.60;12.25;;;;;;;;;;2047116;29;20043;-82
2024/01/09 04:26:46;;;;;;;23.33;14.07;;;;;;;;;;2057855;28;20423;-82
2024/01/09 04:28:07;;;;;;;16.95;11.77;;;;;;;;;;2057454;28;20078;-82
2024/01/09 04:29:28;;;;;;;14.25;12.10;;;;;;;;;;2057287;28;20356;-83
2024/01/09 04:30:49;;;;;;;15.70;11.68;;;;;;;;;;2064305;28;20034;-83
2024/01/09 04:32:10;;;;;;;15.05;13.35;;;;;;;;;;2057052;28;20456;-82
2024/01/09 04:33:31;;;;;;;18.15;13.65;;;;;;;;;;2045707;29;20031;-83
2024/01/09 04:34:53;;;;;;;17.77;12.48;;;;;;;;;;2061824;28;20474;-83
2024/01/09 04:36:16;;;;;;;14.65;11.77;;;;;;;;;;2057203;28;20054;-83
2024/01/09 04:37:36;;;;;;;13.95;11.27;;;;;;;;;;2052213;28;20038;-83
2024/01/09 04:38:59;;;;;;;18.80;13.05;;;;;;;;;;2060146;28;20034;-83
2024/01/09 04:40:20;;;;;;;18.98;13.43;;;;;;;;;;2053380;28;20035;-83
2024/01/09 04:41:42;;;;;;;14.50;12.40;;;;;;;;;;2053228;28;20512;-83
2024/01/09 04:43:04;;;;;;;22.90;13.45;;;;;;;;;;2056975;28;20042;-83
2024/01/09 04:44:25;;;;;;;17.65;12.80;;;;;;;;;;2047453;29;20047;-85
2024/01/09 04:45:46;;;;;;;16.85;11.98;;;;;;;;;;2062113;28;20027;-81
2024/01/09 04:47:07;;;;;;;17.48;13.10;;;;;;;;;;2049669;28;20398;-86
2024/01/09 04:48:28;;;;;;;16.05;12.93;;;;;;;;;;2052075;28;20031;-83
2024/01/09 04:49:49;;;;;;;15.73;12.27;;;;;;;;;;2057152;28;20462;-83
2024/01/09 04:51:10;;;;;;;17.27;12.80;;;;;;;;;;2057661;28;20026;-82
2024/01/09 04:52:31;;;;;;;20.13;13.38;;;;;;;;;;2057571;28;20027;-85
2024/01/09 04:53:51;;;;;;;16.92;12.32;;;;;;;;;;2060228;28;20038;-83
2024/01/09 04:55:13;;;;;;;16.42;12.20;;;;;;;;;;2065332;28;20057;-83
2024/01/09 04:56:35;;;;;;;17.35;12.85;;;;;;;;;;2061740;28;20085;-83
2024/01/09 04:57:56;;;;;;;17.38;13.00;;;;;;;;;;2051023;28;20035;-83
2024/01/09 04:59:17;;;;;;;13.10;11.75;;;;;;;;;;2056991;28;20529;-83
2024/01/09 05:00:38;;;;;;;19.38;13.57;;;;;;;;;;2050081;28;20090;-83
2024/01/09 05:02:01;;;;;;;19.65;13.55;;;;;;;;;;2052404;28;20387;-83
2024/01/09 05:03:22;;;;;;;16.20;12.23;;;;;;;;;;2053323;28;20035;-84
2024/01/09 05:04:43;;;;;;;13.95;12.02;;;;;;;;;;2056445;28;20054;-83
2024/01/09 05:06:04;;;;;;;14.95;11.73;;;;;;;;;;2066050;28;20667;-83
2024/01/09 05:07:25;;;;;;;16.50;12.02;;;;;;;;;;2056837;28;20352;-83
2024/01/09 05:08:46;;;;;;;19.05;13.50;;;;;;;;;;2058463;28;20034;-83
2024/01/09 05:10:08;;;;;;;19.75;12.15;;;;;;;;;;2055583;28;20530;-83
2024/01/09 05:11:29;;;;;;;21.60;13.88;;;;;;;;;;2062653;28;20030;-87
2024/01/09 05:12:50;;;;;;;17.42;12.30;;;;;;;;;;2051376;28;20090;-83
2024/01/09 05:14:11;;;;;;;15.02;11.60;;;;;;;;;;2053399;28;20478;-83
2024/01/09 05:15:32;;;;;;;14.63;12.23;;;;;;;;;;2050889;28;21092;-85
2024/01/09 05:16:53;;;;;;;19.75;13.20;;;;;;;;;;2048372;28;20117;-83
2024/01/09 05:18:14;;;;;;;17.63;11.70;;;;;;;;;;2054912;28;20394;-83
2024/01/09 05:19:35;;;;;;;13.48;11.55;;;;;;;;;;2057378;28;20128;-82
2024/01/09 05:20:56;;;;;;;20.17;13.50;;;;;;;;;;2058436;28;20042;-84
2024/01/09 05:22:17;;;;;;;13.90;10.70;;;;;;;;;;2054714;28;20449;-83
2024/01/09 05:23:38;;;;;;;16.27;12.35;;;;;;;;;;2052741;28;20055;-83
2024/01/09 05:24:59;;;;;;;17.75;13.00;;;;;;;;;;2052058;28;20058;-83
2024/01/09 05:26:20;;;;;;;13.23;11.85;;;;;;;;;;2062071;28;20038;-83
2024/01/09 05:27:41;;;;;;;13.20;11.30;;;;;;;;;;2064598;28;20022;-82
2024/01/09 05:29:02;;;;;;;15.38;11.45;;;;;;;;;;2064695;28;20084;-83
2024/01/09 05:30:23;;;;;;;17.33;12.68;;;;;;;;;;2054313;28;20049;-83
2024/01/09 05:31:44;;;;;;;19.50;11.77;;;;;;;;;;2053813;28;20316;-84
2024/01/09 05:33:05;;;;;;;13.60;11.97;;;;;;;;;;2061919;28;20019;-83
2024/01/09 05:34:26;;;;;;;19.88;12.93;;;;;;;;;;2061559;28;20043;-84
2024/01/09 05:35:47;;;;;;;14.30;12.32;;;;;;;;;;2062205;28;20034;-84
2024/01/09 05:37:08;;;;;;;15.15;12.73;;;;;;;;;;2058919;28;20034;-83
2024/01/09 05:38:29;;;;;;;15.50;11.45;;;;;;;;;;2056609;28;20514;-84
2024/01/09 05:39:49;;;;;;;18.38;11.73;;;;;;;;;;2054233;28;20042;-84
2024/01/09 05:41:21;;;;;;;18.98;13.27;;;;;;;;;;2055786;28;20043;-82
2024/01/09 05:42:43;;;;;;;17.55;12.88;;;;;;;;;;2056670;28;20498;-83
2024/01/09 05:44:04;;;;;;;13.18;11.82;;;;;;;;;;2052559;28;20430;-83
2024/01/09 05:45:25;;;;;;;14.07;11.55;;;;;;;;;;2051566;28;20072;-83
2024/01/09 05:46:46;;;;;;;17.48;13.10;;;;;;;;;;2052699;28;20176;-83
2024/01/09 05:48:07;;;;;;;19.52;17.50;;;;;;;;;;2061661;28;20031;-83
2024/01/09 05:49:28;;;;;;;15.93;12.75;;;;;;;;;;2056986;28;20019;-84
2024/01/09 05:50:49;;;;;;;16.25;12.82;;;;;;;;;;2056288;28;20035;-83
2024/01/09 05:52:10;;;;;;;18.85;12.80;;;;;;;;;;2054180;28;20067;-83
2024/01/09 05:53:31;;;;;;;17.70;11.70;;;;;;;;;;2057646;28;20447;-83
2024/01/09 05:54:52;;;;;;;14.98;12.18;;;;;;;;;;2055934;28;20043;-83
2024/01/09 05:56:13;;;;;;;18.20;12.35;;;;;;;;;;2048047;29;20168;-83
2024/01/09 05:57:35;;;;;;;16.20;11.88;;;;;;;;;;2050198;28;20035;-81
2024/01/09 05:58:56;;;;;;;15.43;11.35;;;;;;;;;;2051201;28;20039;-83
2024/01/09 06:00:17;;;;;;;13.95;11.10;;;;;;;;;;2056320;28;20536;-82
2024/01/09 06:01:38;;;;;;;22.05;13.50;;;;;;;;;;2050858;28;20042;-83
2024/01/09 06:02:59;;;;;;;20.85;14.10;;;;;;;;;;2058317;28;20030;-84
2024/01/09 06:04:20;;;;;;;16.60;12.40;;;;;;;;;;2050290;28;20101;-83
2024/01/09 06:05:41;;;;;;;13.73;11.68;;;;;;;;;;2049419;28;20443;-84
2024/01/09 06:07:02;;;;;;;16.38;12.73;;;;;;;;;;2052999;28;20027;-83
2024/01/09 06:08:24;;;;;;;16.67;12.40;;;;;;;;;;2056417;28;20045;-83
2024/01/09 06:09:46;;;;;;;16.65;13.07;;;;;;;;;;2060865;28;20023;-83
2024/01/09 06:11:06;;;;;;;15.63;11.70;;;;;;;;;;2059835;28;20041;-84
2024/01/09 06:12:27;;;;;;;17.98;13.45;;;;;;;;;;2068830;28;20026;-83
2024/01/09 06:13:48;;;;;;;18.80;13.88;;;;;;;;;;2070385;28;20033;-87
2024/01/09 06:15:09;;;;;;;21.35;12.60;;;;;;;;;;2073062;28;20084;-86
2024/01/09 06:16:30;;;;;;;17.88;12.20;;;;;;;;;;2064907;28;20061;-87
2024/01/09 06:17:53;;;;;;;16.88;12.40;;;;;;;;;;2066880;28;20038;-82
2024/01/09 06:19:14;;;;;;;15.55;12.52;;;;;;;;;;2061270;28;20027;-86
2024/01/09 06:20:35;;;;;;;17.08;13.63;;;;;;;;;;2068065;28;20026;-87
2024/01/09 06:21:56;;;;;;;17.63;13.70;;;;;;;;;;2058743;28;20023;-85
2024/01/09 06:23:17;;;;;;;20.13;12.87;;;;;;;;;;2067579;28;20031;-85
2024/01/09 06:24:38;;;;;;;14.15;12.65;;;;;;;;;;2060971;28;20050;-87
2024/01/09 06:25:59;;;;;;;16.88;12.65;;;;;;;;;;2067774;28;20046;-85
2024/01/09 06:27:20;;;;;;;15.57;13.13;;;;;;;;;;2069251;28;20030;-86
2024/01/09 06:28:41;;;;;;;18.48;13.77;;;;;;;;;;2067751;28;20037;-86
2024/01/09 06:30:02;;;;;;;17.80;12.45;;;;;;;;;;2058490;28;20034;-86
2024/01/09 06:31:23;;;;;;;16.42;11.68;;;;;;;;;;2064809;28;20034;-85
2024/01/09 06:32:44;;;;;;;17.55;13.27;;;;;;;;;;2054242;28;20030;-86
2024/01/09 06:34:05;;;;;;;18.42;13.45;;;;;;;;;;2068030;28;20291;-88
2024/01/09 06:35:26;;;;;;;18.35;12.88;;;;;;;;;;2066963;28;20022;-87
2024/01/09 06:36:47;;;;;;;17.75;13.55;;;;;;;;;;2066013;28;20414;-87
2024/01/09 06:38:08;;;;;;;17.73;14.40;;;;;;;;;;2067217;28;20026;-86
2024/01/09 06:39:29;;;;;;;22.70;14.13;;;;;;;;;;2064936;28;20030;-87
2024/01/09 06:40:49;;;;;;;18.15;12.95;;;;;;;;;;2066283;28;20195;-85
2024/01/09 06:42:10;;;;;;;18.42;13.02;;;;;;;;;;2063745;28;20130;-84
2024/01/09 06:43:31;;;;;;;16.40;13.10;;;;;;;;;;2064349;28;20116;-85
2024/01/09 06:44:52;;;;;;;22.48;14.38;;;;;;;;;;2057432;28;20038;-85
2024/01/09 06:46:13;;;;;;;22.42;15.00;;;;;;;;;;2069808;28;20045;-86
2024/01/09 06:47:34;;;;;;;17.83;13.60;;;;;;;;;;2063678;28;20038;-86
2024/01/09 06:48:55;;;;;;;28.88;14.75;;;;;;;;;;2070390;28;20418;-87
2024/01/09 06:50:16;;;;;;;17.20;13.30;;;;;;;;;;2073061;28;20030;-86
2024/01/09 06:51:37;;;;;;;17.60;13.32;;;;;;;;;;2063724;28;20026;-86
2024/01/09 06:52:58;;;;;;;14.57;11.02;;;;;;;;;;2069926;28;20052;-84
2024/01/09 06:54:20;;;;;;;18.45;13.82;;;;;;;;;;2062174;28;20501;-86
2024/01/09 06:55:41;;;;;;;17.00;12.27;;;;;;;;;;2064032;28;20030;-87
2024/01/09 06:57:02;;;;;;;16.50;11.55;;;;;;;;;;2067245;28;20026;-87
2024/01/09 06:58:24;;;;;;;18.90;14.25;;;;;;;;;;2067183;28;20029;-87
2024/01/09 06:59:45;;;;;;;13.38;11.73;;;;;;;;;;2060355;28;20023;-85
2024/01/09 07:01:06;;;;;;;16.60;12.73;;;;;;;;;;2059812;28;20046;-87
2024/01/09 07:02:27;;;;;;;18.05;12.55;;;;;;;;;;2061046;28;20038;-85
2024/01/09 07:03:48;;;;;;;18.70;13.20;;;;;;;;;;2058080;28;20035;-88
2024/01/09 07:05:09;;;;;;;19.30;13.98;;;;;;;;;;2063243;28;20427;-87
2024/01/09 07:06:30;;;;;;;19.38;13.48;;;;;;;;;;2061867;28;20035;-85
2024/01/09 07:07:51;;;;;;;16.83;12.75;;;;;;;;;;2060720;28;20057;-87
2024/01/09 07:09:12;;;;;;;19.17;13.68;;;;;;;;;;2061743;28;20525;-87
2024/01/09 07:10:34;;;;;;;20.48;13.82;;;;;;;;;;2075009;28;20445;-87
2024/01/09 07:11:55;;;;;;;14.40;12.05;;;;;;;;;;2072587;28;20034;-87
2024/01/09 07:13:16;;;;;;;23.85;13.63;;;;;;;;;;2065305;28;20176;-86
2024/01/09 07:14:37;;;;;;;16.92;14.15;;;;;;;;;;2057077;28;20049;-86
2024/01/09 07:15:57;;;;;;;20.30;13.93;;;;;;;;;;2072527;28;20048;-88
2024/01/09 07:17:18;;;;;;;27.08;14.75;;;;;;;;;;2059229;28;20039;-86
2024/01/09 07:18:39;;;;;;;19.88;14.88;;;;;;;;;;2060821;28;20031;-86
2024/01/09 07:20:00;;;;;;;15.57;11.88;;;;;;;;;;2073322;28;20529;-85
2024/01/09 07:21:21;;;;;;;15.18;11.77;;;;;;;;;;2069077;28;20144;-86
2024/01/09 07:22:42;;;;;;;19.88;13.82;;;;;;;;;;2065544;28;20097;-85
2024/01/09 07:24:03;;;;;;;17.05;12.57;;;;;;;;;;2061935;28;20035;-87
2024/01/09 07:25:24;;;;;;;17.42;13.32;;;;;;;;;;2073831;28;20038;-87
2024/01/09 07:26:45;;;;;;;20.45;14.35;;;;;;;;;;2067503;28;20038;-86
2024/01/09 07:28:06;;;;;;;18.95;14.15;;;;;;;;;;2068338;28;20033;-88
2024/01/09 07:29:26;;;;;;;21.98;14.88;;;;;;;;;;2067310;28;20026;-88
2024/01/09 07:30:48;;;;;;;22.35;14.20;;;;;;;;;;2065037;28;20411;-87
2024/01/09 07:32:08;;;;;;;16.20;12.18;;;;;;;;;;2072786;28;20497;-86
2024/01/09 07:33:29;;;;;;;17.15;12.23;;;;;;;;;;2069632;28;20030;-86
2024/01/09 07:34:50;;;;;;;19.65;13.68;;;;;;;;;;2065730;28;20041;-87
2024/01/09 07:36:11;;;;;;;18.58;14.07;;;;;;;;;;2065429;28;20038;-87
2024/01/09 07:37:32;;;;;;;18.08;13.70;;;;;;;;;;2062969;28;20429;-87
2024/01/09 07:38:53;;;;;;;17.08;13.45;;;;;;;;;;2063812;28;20035;-87
2024/01/09 07:40:14;;;;;;;17.60;13.88;;;;;;;;;;2072702;28;20038;-87
2024/01/09 07:41:35;;;;;;;16.35;12.73;;;;;;;;;;2070825;28;20026;-87
2024/01/09 07:42:58;;;;;;;20.00;14.07;;;;;;;;;;2066092;28;20450;-86
2024/01/09 07:44:20;;;;;;;19.35;13.02;;;;;;;;;;2065749;28;20042;-86
2024/01/09 07:45:41;;;;;;;15.98;12.80;;;;;;;;;;2060245;28;20062;-87
2024/01/09 07:47:02;;;;;;;18.65;13.02;;;;;;;;;;2059023;28;20027;-87
2024/01/09 07:48:24;;;;;;;18.85;13.77;;;;;;;;;;2063853;28;20033;-87
2024/01/09 07:49:45;;;;;;;14.77;11.60;;;;;;;;;;2072555;28;20030;-87
2024/01/09 07:51:06;;;;;;;22.27;13.98;;;;;;;;;;2067157;28;20030;-86
2024/01/09 07:52:27;;;;;;;18.77;14.35;;;;;;;;;;2064685;28;20041;-87
2024/01/09 07:53:47;;;;;;;15.90;13.20;;;;;;;;;;2065374;28;20034;-87